Orbital elements of COSMOS 970 DEB
| Launched | 20 December 1977 |
| Flight ended | – |
| Launch site | Tyuratam Missile and Space Center, Kazakhstan (Also known as Baikonur Cosmodrome) |
| Owner | Commonwealth of Independent States (former USSR) |
| NORAD ID | 12867 |
| Date fetched |
Epoch osculation |
Inc. [°] |
Ecc. | RA asc node [hr] |
Arg Peri. [°] |
Mean anom [°] |
Mean motion [rev/day] |
Abs. mag |
| Date fetched |
Epoch osculation |
Inc. [°] |
Ecc. | RA asc node [hr] |
Arg Peri. [°] |
Mean anom [°] |
Mean motion [rev/day] |
Abs. mag |
| 2026 May 03 17:57 | 2026 Apr 30 09:21:00 | 65.9451 | 0.00887 | 9.1439 | 212.8514 | 257.9184 | 13.37014 | – |
| 2026 May 02 17:57 | 2026 Apr 30 09:21:00 | 65.9451 | 0.00887 | 9.1439 | 212.8514 | 257.9184 | 13.37014 | – |
| 2026 May 01 17:56 | 2026 Apr 30 09:21:00 | 65.9451 | 0.00887 | 9.1439 | 212.8514 | 257.9184 | 13.37014 | – |
| 2026 Apr 30 17:56 | 2026 Apr 30 09:21:00 | 65.9451 | 0.00887 | 9.1439 | 212.8514 | 257.9184 | 13.37014 | – |
| 2026 Apr 29 17:57 | 2026 Apr 24 11:32:38 | 65.9459 | 0.00891 | 10.0515 | 215.4967 | 257.9184 | 13.37014 | – |
| 2026 Apr 28 17:56 | 2026 Apr 24 11:32:38 | 65.9459 | 0.00891 | 10.0515 | 215.4967 | 257.9184 | 13.37014 | – |
| 2026 Apr 27 17:58 | 2026 Apr 24 11:32:38 | 65.9459 | 0.00891 | 10.0515 | 215.4967 | 257.9184 | 13.37014 | – |
| 2026 Apr 26 17:58 | 2026 Apr 24 11:32:38 | 65.9459 | 0.00891 | 10.0515 | 215.4967 | 257.9184 | 13.37014 | – |
| 2026 Apr 25 17:58 | 2026 Apr 24 11:32:38 | 65.9459 | 0.00891 | 10.0515 | 215.4967 | 257.9184 | 13.37014 | – |
| 2026 Apr 24 17:59 | 2026 Apr 24 11:32:38 | 65.9459 | 0.00891 | 10.0515 | 215.4967 | 257.9184 | 13.37014 | – |
| 2026 Apr 23 17:57 | 2026 Apr 19 03:40:05 | 65.9467 | 0.00894 | 10.8700 | 217.8460 | 257.9184 | 13.37014 | – |
| 2026 Apr 22 17:57 | 2026 Apr 19 03:40:05 | 65.9467 | 0.00894 | 10.8700 | 217.8460 | 257.9184 | 13.37014 | – |
| 2026 Apr 21 17:57 | 2026 Apr 19 03:40:05 | 65.9467 | 0.00894 | 10.8700 | 217.8460 | 257.9184 | 13.37014 | – |
| 2026 Apr 20 17:57 | 2026 Apr 19 03:40:05 | 65.9467 | 0.00894 | 10.8700 | 217.8460 | 257.9184 | 13.37014 | – |
| 2026 Apr 19 17:58 | 2026 Apr 19 03:40:05 | 65.9467 | 0.00894 | 10.8700 | 217.8460 | 257.9184 | 13.37014 | – |
| 2026 Apr 18 17:56 | 2026 Apr 12 08:30:15 | 65.9476 | 0.00897 | 11.9143 | 220.8302 | 257.9184 | 13.37014 | – |
| 2026 Apr 16 17:57 | 2026 Apr 12 08:30:15 | 65.9476 | 0.00897 | 11.9143 | 220.8302 | 257.9184 | 13.37014 | – |
| 2026 Apr 14 17:57 | 2026 Apr 12 08:30:15 | 65.9476 | 0.00897 | 11.9143 | 220.8302 | 257.9184 | 13.37014 | – |
| 2026 Apr 13 17:57 | 2026 Apr 12 08:30:15 | 65.9476 | 0.00897 | 11.9143 | 220.8302 | 257.9184 | 13.37014 | – |
| 2026 Apr 12 17:57 | 2026 Apr 08 14:56:36 | 65.9480 | 0.00899 | 12.4875 | 222.4757 | 257.9184 | 13.37014 | – |
| 2026 Apr 11 17:57 | 2026 Apr 08 14:56:36 | 65.9480 | 0.00899 | 12.4875 | 222.4757 | 257.9184 | 13.37014 | – |
| 2026 Apr 10 17:58 | 2026 Apr 08 14:56:36 | 65.9480 | 0.00899 | 12.4875 | 222.4757 | 257.9184 | 13.37014 | – |
| 2026 Apr 09 18:01 | 2026 Apr 08 14:56:36 | 65.9480 | 0.00899 | 12.4875 | 222.4757 | 257.9184 | 13.37014 | – |
| 2026 Apr 08 17:57 | 2026 Apr 08 14:56:36 | 65.9480 | 0.00899 | 12.4875 | 222.4757 | 257.9184 | 13.37014 | – |
| 2026 Apr 07 17:57 | 2026 Apr 02 07:44:52 | 65.9479 | 0.00901 | 13.4552 | 225.2198 | 257.9184 | 13.37014 | – |
| 2026 Apr 06 17:57 | 2026 Apr 02 07:44:52 | 65.9479 | 0.00901 | 13.4552 | 225.2198 | 257.9184 | 13.37014 | – |